createdAt,value
2023-04-30T00:05:25.942Z,9.3
2023-04-30T00:20:35.983Z,9.1
2023-04-30T00:35:45.501Z,8.9
2023-04-30T00:50:54.910Z,8.8
2023-04-30T01:06:04.491Z,8.6
2023-04-30T01:21:13.883Z,8.4
2023-04-30T01:36:23.171Z,8.3
2023-04-30T01:51:33.102Z,8.2
2023-04-30T02:06:42.532Z,8
2023-04-30T02:21:52.299Z,7.9
2023-04-30T02:37:01.770Z,7.7
2023-04-30T02:52:11.084Z,7.6
2023-04-30T03:07:20.474Z,7.5
2023-04-30T03:22:29.665Z,7.4
2023-04-30T03:39:44.527Z,7.9
2023-04-30T03:54:55.689Z,7.2
2023-04-30T04:10:05.121Z,7.1
2023-04-30T04:25:17.241Z,7.1
2023-04-30T04:40:26.300Z,7
2023-04-30T04:55:36.790Z,7.1
2023-04-30T05:10:46.820Z,7.2
2023-04-30T05:25:56.745Z,7.4
2023-04-30T05:41:06.744Z,7.6
2023-04-30T05:56:17.074Z,7.8
2023-04-30T06:11:26.576Z,7.9
2023-04-30T06:26:37.778Z,8.2
2023-04-30T06:41:49.154Z,8.4
2023-04-30T06:56:59.031Z,8.5
2023-04-30T07:12:08.576Z,8.6
2023-04-30T07:27:18.501Z,8.7
2023-04-30T07:42:27.883Z,8.9
2023-04-30T07:57:38.040Z,9
2023-04-30T08:12:47.789Z,9.2
2023-04-30T08:27:57.901Z,9.4
2023-04-30T08:43:07.450Z,9.6
2023-04-30T08:58:17.614Z,9.7
2023-04-30T09:13:27.652Z,9.9
2023-04-30T09:28:36.879Z,10
2023-04-30T09:43:46.371Z,10.3
2023-04-30T09:58:56.172Z,10.5
2023-04-30T10:14:06.123Z,10.9
2023-04-30T10:29:17.369Z,11.1
2023-04-30T10:44:27.344Z,11.2
2023-04-30T10:59:38.204Z,11.6
2023-04-30T11:14:49.035Z,11.7
2023-04-30T11:29:59.307Z,12.1
2023-04-30T11:45:09.832Z,12.5
2023-04-30T12:00:19.677Z,13.1
2023-04-30T12:15:31.498Z,17
2023-04-30T12:30:41.694Z,16.1
2023-04-30T12:45:52.404Z,16.9
2023-04-30T13:01:04.207Z,17.6
2023-04-30T13:16:16.854Z,18.3
2023-04-30T13:31:28.395Z,19.1
2023-04-30T13:46:40.594Z,20.2
2023-04-30T14:01:51.572Z,20.8
2023-04-30T14:17:02.001Z,21.6
2023-04-30T14:32:11.466Z,21.8
2023-04-30T14:47:22.147Z,22.6
2023-04-30T15:02:32.715Z,23.4
2023-04-30T15:17:44.213Z,24.3
2023-04-30T15:32:55.158Z,25.5
2023-04-30T15:48:05.896Z,26.6
2023-04-30T16:03:17.408Z,27.1
2023-04-30T16:18:27.748Z,26.1
2023-04-30T16:33:36.689Z,25.8
2023-04-30T16:48:44.042Z,21.6
2023-04-30T17:03:52.915Z,19.7
2023-04-30T17:19:01.747Z,18.5
2023-04-30T17:34:10.481Z,17.8
2023-04-30T17:49:19.876Z,17.3
2023-04-30T18:08:53.132Z,17.5
2023-04-30T18:24:04.416Z,16.2
2023-04-30T18:39:17.002Z,15.8
2023-04-30T18:54:26.259Z,15.4
2023-04-30T19:09:36.172Z,15
2023-04-30T19:24:45.361Z,14.7
2023-04-30T19:39:54.860Z,14.4
2023-04-30T19:55:05.795Z,14
2023-04-30T20:10:16.130Z,13.7
2023-04-30T20:25:25.241Z,13.4
2023-04-30T20:40:34.618Z,13.2
2023-04-30T20:55:43.977Z,13
2023-04-30T21:10:54.130Z,12.7
2023-04-30T21:30:30.297Z,13.4
2023-04-30T21:45:43.338Z,12.3
2023-04-30T22:00:52.415Z,11.9
2023-04-30T22:16:02.331Z,11.6
2023-04-30T22:31:12.089Z,11.4
2023-04-30T22:46:21.970Z,11.1
2023-04-30T23:01:32.538Z,10.9
2023-04-30T23:16:42.295Z,10.8
2023-04-30T23:31:53.416Z,10.6
2023-04-30T23:47:04.070Z,10.4
